Buoy 46611

sailwx.info

Track history (hours):
 
Tides and Currents Weather Stations Pressure Air Temp Water Temp Dewpoint Dewpoint Depression Visibility Wind Speed Wind Dir Waves Ship Positions

Drifting buoy 46611

Last reported at 2015-Mar-03 18:00 UTC. Time now 2015-Mar-03 20:21 UTC.
Position N 59°10' W 141°45'.

Barometer 1020.7 mb
Water temperature 6.9 ° C

Date/timePositionNaut miles runAvg speedWind from/ knotsBaromVisibWave heightAir tempDewpointWater temp
2015-Mar-03 18:00N 59°10' W 141°45'0 0.0 1020.7 6.9
2015-Mar-03 17:00N 59°10' W 141°45'0 0.3 1020.5 7.0
2015-Mar-03 16:00N 59°09' W 141°44'0 0.2 1020.2 7.1
2015-Mar-03 14:00N 59°09' W 141°44'2 1.6 1020.4 7.2
2015-Mar-03 13:00N 59°08' W 141°41'0 0.2 1020.8 7.2
2015-Mar-03 12:00N 59°08' W 141°41'2 2.1 1020.8 7.2
2015-Mar-03 11:00N 59°08' W 141°37'2 0.6 1021.4 7.2
2015-Mar-03 08:00N 59°07' W 141°34'0 0.0 1021.9 7.1
2015-Mar-03 07:00N 59°07' W 141°34'0 0.0 1022.3 7.0
2015-Mar-03 06:00N 59°07' W 141°34'0 0.0 1022.7 7.0
2015-Mar-03 05:00N 59°07' W 141°34'2 2.5 1022.9 6.9
2015-Mar-03 04:00N 59°05' W 141°31'1 1.0 1023.1 6.8
2015-Mar-03 03:00N 59°06' W 141°30'1 0.7 1023.6 6.8
2015-Mar-03 01:00N 59°05' W 141°27'0 0.3 1024.8 7.0
2015-Mar-03 00:00N 59°05' W 141°28'0 0.5 1025.4 7.1
2015-Mar-02 23:00N 59°05' W 141°27'0 0.1 1026.4 7.0
2015-Mar-02 22:00N 59°05' W 141°27'0 0.0 1027.2 6.8
2015-Mar-02 21:00N 59°05' W 141°27'1 0.6 1027.7 6.8
2015-Mar-02 19:00N 59°04' W 141°25'3 1.4 1027.9 6.7
2015-Mar-02 17:00N 59°02' W 141°21'0 0.0 1028.6 6.7
2015-Mar-02 16:00N 59°02' W 141°21'1 0.6 1029.2 6.8
2015-Mar-02 15:00N 59°03' W 141°22'0 0.3 1029.7 6.8
2015-Mar-02 14:00N 59°03' W 141°21'1 1.5 1030.1 6.8
2015-Mar-02 13:00N 59°03' W 141°19'2 0.8 1030.5 6.8
2015-Mar-02 11:00N 59°02' W 141°16'2 2.0 1031.7 6.8
2015-Mar-02 10:00N 59°03' W 141°19'2 0.4 1031.6 6.8
2015-Mar-02 06:00N 59°02' W 141°19'3 3.2 1031.7 6.8
2015-Mar-02 05:00N 59°00' W 141°13'1 0.6 1031.7 6.8
2015-Mar-02 03:00N 59°00' W 141°11'1 0.5 1031.9 6.8
2015-Mar-02 01:00N 58°60' W 141°09'0 0.5 1032.0 6.8
2015-Mar-02 00:00N 58°60' W 141°08'1 1.1 1031.7 6.8
2015-Mar-01 23:00N 58°60' W 141°06'1 0.4 1031.8 6.8
2015-Mar-01 21:00N 58°59' W 141°06'0 0.4 1031.1 6.8
2015-Mar-01 20:00N 58°59' W 141°06'2 0.7 1030.3 6.8
2015-Mar-01 17:00N 58°58' W 141°03'1 1.2 1028.2 7.0
2015-Mar-01 16:00N 58°57' W 141°02'1 1.5 1027.4 7.0
2015-Mar-01 15:00N 58°56' W 141°00'2 1.6 1027.6 7.0
2015-Mar-01 14:00N 58°55' W 140°58'0 0.4 1027.4 7.0
2015-Mar-01 13:00N 58°54' W 140°58'0 0.1 1026.3 6.9
2015-Mar-01 08:00N 58°54' W 140°57'0 0.0 1026.0 6.9
2015-Mar-01 07:00N 58°54' W 140°57'1 0.5 1025.4 7.0
2015-Mar-01 06:00N 58°55' W 140°57'1 0.3 1025.6 7.1
2015-Mar-01 03:00N 58°54' W 140°57'1 1.1 1025.7 7.2
2015-Mar-01 02:00N 58°53' W 140°55'3 1.5 1026.0 7.4
2015-Mar-01 00:00N 58°51' W 140°50'1 0.4 1027.4 7.5
2015-Feb-28 21:00N 58°51' W 140°49'0 0.0 1028.0 7.2
2015-Feb-28 20:00N 58°51' W 140°49'0 0.3 1028.0 7.3
2015-Feb-28 19:00N 58°51' W 140°49'1 1.4 1028.0 7.1
2015-Feb-28 18:00N 58°50' W 140°51'0 0.0 1028.1 7.1
2015-Feb-28 17:00N 58°50' W 140°51'4 4.1 1028.0 7.2
2015-Feb-28 16:00N 58°47' W 140°56'0 0.0 1028.1 7.2
2015-Feb-28 15:00N 58°47' W 140°56'0 0.0 1028.6 7.3
2015-Feb-28 14:00N 58°47' W 140°56'2 1.7 1029.1 7.3
2015-Feb-28 13:00N 58°48' W 140°53'3 1.6 1029.4 7.3
2015-Feb-28 11:00N 58°46' W 140°58'0 0.0 1030.3 7.4
2015-Feb-28 08:00N 58°46' W 140°58'2 2.4 1030.3 7.4
2015-Feb-28 07:00N 58°45' W 141°02'0 0.0 1030.5 7.4
2015-Feb-28 06:00N 58°45' W 141°02'0 0.3 1030.8 7.4
2015-Feb-28 05:00N 58°45' W 141°02'1 1.0 1031.0 7.5
2015-Feb-28 04:00N 58°44' W 141°00'1 0.4 1031.1 7.5
2015-Feb-28 01:00N 58°43' W 141°01'2 1.1 1031.9 7.5
2015-Feb-27 23:00N 58°41' W 141°01'3 0.9 1032.2 7.6
2015-Feb-27 20:00N 58°38' W 141°01'1 0.4 1031.8 7.5
2015-Feb-27 18:00N 58°37' W 141°02'0 0.0 1031.3 7.4
2015-Feb-27 17:00N 58°37' W 141°02'1 1.1 1030.9 7.3
2015-Feb-27 16:00N 58°37' W 141°04'0 0.0 1030.7 7.3
2015-Feb-27 15:00N 58°37' W 141°04'1 1.4 1030.8 7.3
2015-Feb-27 14:00N 58°36' W 141°06'1 0.9 1031.0 7.3
2015-Feb-27 13:00N 58°36' W 141°07'0 0.0 1030.7 7.3
2015-Feb-27 12:00N 58°36' W 141°07'2 1.6 1030.7 7.3
2015-Feb-27 11:00N 58°35' W 141°10'0 0.0 1031.1 7.1
2015-Feb-27 10:00N 58°35' W 141°10'0 0.1 1031.2 7.0
2015-Feb-27 07:00N 58°34' W 141°10'0 0.2 1030.7 7.0
2015-Feb-27 06:00N 58°34' W 141°10'1 0.8 1030.4 7.0
2015-Feb-27 05:00N 58°34' W 141°11'1 0.8 1030.3 7.0
2015-Feb-27 04:00N 58°34' W 141°10'1 1.1 1030.2 7.0
2015-Feb-27 03:00N 58°34' W 141°12'0 0.3 1030.3 7.0
2015-Feb-27 02:00N 58°34' W 141°12'1 1.0 1030.4 7.1
2015-Feb-27 01:00N 58°35' W 141°14'0 0.0 1030.4 7.0
2015-Feb-27 00:00N 58°35' W 141°14'2 0.7 1030.6 7.0
2015-Feb-26 21:00N 58°34' W 141°17'1 1.1 1030.3 7.0
2015-Feb-26 20:00N 58°34' W 141°19'1 0.3 1030.3 7.0
2015-Feb-26 17:00N 58°33' W 141°18'0 0.4 1028.8 7.0
2015-Feb-26 16:00N 58°33' W 141°19'1 0.6 1028.2 7.0
2015-Feb-26 15:00N 58°33' W 141°18'1 0.3 1027.9 7.0
2015-Feb-26 12:00N 58°33' W 141°19'1 0.8 1027.1 7.0
2015-Feb-26 11:00N 58°34' W 141°19'0 0.0 1026.8 7.0
2015-Feb-26 10:00N 58°34' W 141°19'0 0.0 1026.5 7.0
2015-Feb-26 09:00N 58°34' W 141°19'2 2.4 1026.2 7.0
2015-Feb-26 08:00N 58°32' W 141°21'0 0.1 1025.7 7.0
2015-Feb-26 07:00N 58°31' W 141°21'1 1.1 1025.5 7.0
2015-Feb-26 06:00N 58°30' W 141°22'1 0.7 1025.0 7.0
2015-Feb-26 04:00N 58°29' W 141°21'0 0.0 1024.1 7.0
2015-Feb-26 03:00N 58°29' W 141°21'1 0.8 1023.6 7.1
2015-Feb-26 02:00N 58°29' W 141°19'1 0.5 1023.4 7.1
2015-Feb-26 01:00N 58°28' W 141°19'0 0.0 1023.4 7.1
2015-Feb-26 00:00N 58°28' W 141°19'0 0.4 1023.5 7.1
2015-Feb-25 23:00N 58°29' W 141°19'1 0.7 1023.7 7.1
2015-Feb-25 22:00N 58°28' W 141°18'0 0.0 1024.0 7.1
2015-Feb-25 21:00N 58°28' W 141°18'1 0.5 1024.2 7.1
2015-Feb-25 20:00N 58°28' W 141°19'1 0.9 1024.4 7.1
2015-Feb-25 19:00N 58°28' W 141°21'1 1.1 1024.4 7.1
2015-Feb-25 18:00N 58°27' W 141°20'1 1.4 1024.3 7.1
2015-Feb-25 17:00N 58°27' W 141°17'2 2.0 1023.9 7.0
2015-Feb-25 16:00N 58°25' W 141°20'0 0.0 1024.0 7.0
2015-Feb-25 15:00N 58°25' W 141°20'0 0.0 1024.0 7.1
2015-Feb-25 14:00N 58°25' W 141°20'0 0.2 1024.5 7.3
2015-Feb-25 13:00N 58°25' W 141°19'2 1.7 1024.8 7.4
2015-Feb-25 12:00N 58°24' W 141°17'0 0.0 1025.2 7.5
2015-Feb-25 11:00N 58°24' W 141°17'1 1.2 1025.8 7.5
2015-Feb-25 10:00N 58°23' W 141°17'0 0.1 1026.2 7.5
2015-Feb-25 06:00N 58°23' W 141°17'1 0.5 1027.1 7.5
2015-Feb-25 05:00N 58°22' W 141°18'0 0.0 1027.5 7.5
2015-Feb-25 04:00N 58°22' W 141°18'1 0.5 1027.6 7.5
2015-Feb-25 03:00N 58°22' W 141°18'0 0.0 1027.8 7.5
2015-Feb-25 02:00N 58°22' W 141°18'1 0.6 1028.5 7.6
2015-Feb-25 01:00N 58°21' W 141°19'1 0.8 1029.1 7.6
2015-Feb-25 00:00N 58°21' W 141°18'1 0.9 1029.4 7.6
2015-Feb-24 23:00N 58°20' W 141°18'0 0.3 1029.9 7.6
2015-Feb-24 22:00N 58°20' W 141°17'0 0.3 1030.5 7.5
2015-Feb-24 21:00N 58°20' W 141°17'0 0.0 1030.7 7.5
2015-Feb-24 20:00N 58°20' W 141°17'0 0.3 1030.5 7.5
2015-Feb-24 19:00N 58°20' W 141°16'0 0.0 1030.4 7.5
2015-Feb-24 18:00N 58°20' W 141°16'0 0.3 1030.4 7.5
2015-Feb-24 17:00N 58°20' W 141°17'0 0.4 1030.2 7.5
2015-Feb-24 16:00N 58°20' W 141°16'1 0.7 1030.0 7.5
2015-Feb-24 15:00N 58°20' W 141°18'1 0.7 1029.9 7.5
2015-Feb-24 14:00N 58°19' W 141°18'1 0.7 1029.6 7.5
2015-Feb-24 13:00N 58°19' W 141°18'1 1.3 1029.5 7.5
2015-Feb-24 12:00N 58°17' W 141°18'2 1.0 1028.8 7.5
2015-Feb-24 10:00N 58°15' W 141°17'2 2.0 1028.5 7.5
2015-Feb-24 09:00N 58°17' W 141°18'2 2.0 1028.2 7.5
2015-Feb-24 08:00N 58°15' W 141°17'1 0.6 1027.9 7.4
2015-Feb-24 07:00N 58°15' W 141°17'0 0.0 1027.9 7.4
2015-Feb-24 06:00N 58°15' W 141°17'1 0.5 1027.8 7.3
2015-Feb-24 05:00N 58°15' W 141°17'0 0.0 1027.1 7.1
2015-Feb-24 04:00N 58°15' W 141°17'1 0.8 1026.6 7.1
2015-Feb-24 03:00N 58°15' W 141°18'0 0.0 1026.0 7.1
2015-Feb-24 02:00N 58°15' W 141°18'0 0.2 1025.4 7.1
2015-Feb-24 01:00N 58°15' W 141°19'1 0.7 1025.1 7.1
2015-Feb-24 00:00N 58°14' W 141°20'0 0.0 1025.1 7.1
2015-Feb-23 23:00N 58°14' W 141°20'1 1.1 1025.3 7.1
2015-Feb-23 22:00N 58°13' W 141°20'0 0.2 1025.1 7.1
2015-Feb-23 21:00N 58°13' W 141°20'1 1.3 1024.9 7.1
2015-Feb-23 20:00N 58°12' W 141°22'0 0.2 1024.7 7.1
2015-Feb-23 18:00N 58°12' W 141°21'0 0.0 1023.9 7.1
2015-Feb-23 17:00N 58°12' W 141°21'0 0.0 1023.5 7.1
2015-Feb-23 16:00N 58°12' W 141°21'1 1.0 1022.7 7.0
2015-Feb-23 15:00N 58°11' W 141°20'1 1.5 1021.8 7.1
2015-Feb-23 14:00N 58°11' W 141°23'0 0.0 1021.1 7.1
2015-Feb-23 12:00N 58°11' W 141°23'2 0.8 1019.6 7.0
2015-Feb-23 10:00N 58°10' W 141°23'0 0.0 1017.6 7.1
2015-Feb-23 09:00N 58°10' W 141°23'0 0.0 1016.3 7.1
2015-Feb-23 08:00N 58°10' W 141°23'3 2.5 1016.2 7.1
2015-Feb-23 07:00N 58°07' W 141°23'0 0.0 1016.4 7.1
2015-Feb-23 06:00N 58°07' W 141°23'0 0.0 1016.9 7.1
2015-Feb-23 05:00N 58°07' W 141°23'1 1.1 1017.3 7.1
2015-Feb-23 04:00N 58°06' W 141°24'0 0.5 1017.3 7.1
2015-Feb-23 03:00N 58°06' W 141°24'1 1.2 1017.5 7.1
2015-Feb-23 02:00N 58°05' W 141°22'1 0.8 1017.7 7.1
2015-Feb-23 01:00N 58°04' W 141°21'1 1.1 1017.6 7.1
2015-Feb-23 00:00N 58°03' W 141°20'0 0.0 1018.0 7.1
2015-Feb-22 22:00N 58°03' W 141°20'1 0.4 1018.6 7.1
2015-Feb-22 20:00N 58°03' W 141°19'1 1.3 1019.8 7.1
2015-Feb-22 19:00N 58°02' W 141°20'1 0.5 1020.3 7.1
2015-Feb-22 17:00N 58°01' W 141°20'0 0.0 1021.0 7.1
2015-Feb-22 16:00N 58°01' W 141°20'1 0.8 1021.0 7.1
2015-Feb-22 15:00N 57°60' W 141°20'0 0.0 1021.1 7.1
2015-Feb-22 14:00N 57°60' W 141°20'3 2.7 1021.8 7.1
2015-Feb-22 13:00N 57°58' W 141°16'0 0.0 1021.9 7.1
2015-Feb-22 12:00N 57°58' W 141°16'4 1.0 1022.0 7.1
2015-Feb-22 08:00N 57°60' W 141°08'0 0.0 1021.5 7.1
2015-Feb-22 07:00N 57°60' W 141°08'6 5.8 1021.0 7.1
2015-Feb-22 06:00N 57°57' W 141°18'0 0.0 1020.4 7.1
2015-Feb-22 05:00N 57°57' W 141°18'3 3.2 1019.7 7.1
2015-Feb-22 04:00N 57°55' W 141°13'1 0.7 1018.9 7.1
2015-Feb-22 03:00N 57°55' W 141°14'0 0.0 1018.4 7.1
2015-Feb-22 02:00N 57°55' W 141°14'1 0.5 1018.2 7.1
2015-Feb-22 01:00N 57°55' W 141°15'2 1.7 1017.9 7.1
2015-Feb-22 00:00N 57°53' W 141°14'3 2.6 1018.3 7.0
2015-Feb-21 23:00N 57°52' W 141°09'2 1.0 1018.6 7.0
2015-Feb-21 21:00N 57°50' W 141°08'   1019.9 6.9
Track history (hours):
 
Tides and Currents Weather Stations Pressure Air Temp Water Temp Dewpoint Dewpoint Depression Visibility Wind Speed Wind Dir Waves Ship Positions

Drifting buoy 46611

Last reported at 2015-Mar-03 18:00 UTC. Time now 2015-Mar-03 20:21 UTC.
Position N 59°10' W 141°45'.

Barometer 1020.7 mb
Water temperature 6.9 ° C

Date/timePositionNaut miles runAvg speedWind from/ knotsBaromVisibWave heightAir tempDewpointWater temp
2015-Mar-03 18:00N 59°10' W 141°45'0 0.0 1020.7 6.9
2015-Mar-03 17:00N 59°10' W 141°45'0 0.3 1020.5 7.0
2015-Mar-03 16:00N 59°09' W 141°44'0 0.2 1020.2 7.1
2015-Mar-03 14:00N 59°09' W 141°44'2 1.6 1020.4 7.2
2015-Mar-03 13:00N 59°08' W 141°41'0 0.2 1020.8 7.2
2015-Mar-03 12:00N 59°08' W 141°41'2 2.1 1020.8 7.2
2015-Mar-03 11:00N 59°08' W 141°37'2 0.6 1021.4 7.2
2015-Mar-03 08:00N 59°07' W 141°34'0 0.0 1021.9 7.1
2015-Mar-03 07:00N 59°07' W 141°34'0 0.0 1022.3 7.0
2015-Mar-03 06:00N 59°07' W 141°34'0 0.0 1022.7 7.0
2015-Mar-03 05:00N 59°07' W 141°34'2 2.5 1022.9 6.9
2015-Mar-03 04:00N 59°05' W 141°31'1 1.0 1023.1 6.8
2015-Mar-03 03:00N 59°06' W 141°30'1 0.7 1023.6 6.8
2015-Mar-03 01:00N 59°05' W 141°27'0 0.3 1024.8 7.0
2015-Mar-03 00:00N 59°05' W 141°28'0 0.5 1025.4 7.1
2015-Mar-02 23:00N 59°05' W 141°27'0 0.1 1026.4 7.0
2015-Mar-02 22:00N 59°05' W 141°27'0 0.0 1027.2 6.8
2015-Mar-02 21:00N 59°05' W 141°27'1 0.6 1027.7 6.8
2015-Mar-02 19:00N 59°04' W 141°25'3 1.4 1027.9 6.7
2015-Mar-02 17:00N 59°02' W 141°21'0 0.0 1028.6 6.7
2015-Mar-02 16:00N 59°02' W 141°21'1 0.6 1029.2 6.8
2015-Mar-02 15:00N 59°03' W 141°22'0 0.3 1029.7 6.8
2015-Mar-02 14:00N 59°03' W 141°21'1 1.5 1030.1 6.8
2015-Mar-02 13:00N 59°03' W 141°19'2 0.8 1030.5 6.8
2015-Mar-02 11:00N 59°02' W 141°16'2 2.0 1031.7 6.8
2015-Mar-02 10:00N 59°03' W 141°19'2 0.4 1031.6 6.8
2015-Mar-02 06:00N 59°02' W 141°19'3 3.2 1031.7 6.8
2015-Mar-02 05:00N 59°00' W 141°13'1 0.6 1031.7 6.8
2015-Mar-02 03:00N 59°00' W 141°11'1 0.5 1031.9 6.8
2015-Mar-02 01:00N 58°60' W 141°09'0 0.5 1032.0 6.8
2015-Mar-02 00:00N 58°60' W 141°08'1 1.1 1031.7 6.8
2015-Mar-01 23:00N 58°60' W 141°06'1 0.4 1031.8 6.8
2015-Mar-01 21:00N 58°59' W 141°06'0 0.4 1031.1 6.8
2015-Mar-01 20:00N 58°59' W 141°06'2 0.7 1030.3 6.8
2015-Mar-01 17:00N 58°58' W 141°03'1 1.2 1028.2 7.0
2015-Mar-01 16:00N 58°57' W 141°02'1 1.5 1027.4 7.0
2015-Mar-01 15:00N 58°56' W 141°00'2 1.6 1027.6 7.0
2015-Mar-01 14:00N 58°55' W 140°58'0 0.4 1027.4 7.0
2015-Mar-01 13:00N 58°54' W 140°58'0 0.1 1026.3 6.9
2015-Mar-01 08:00N 58°54' W 140°57'0 0.0 1026.0 6.9
2015-Mar-01 07:00N 58°54' W 140°57'1 0.5 1025.4 7.0
2015-Mar-01 06:00N 58°55' W 140°57'1 0.3 1025.6 7.1
2015-Mar-01 03:00N 58°54' W 140°57'1 1.1 1025.7 7.2
2015-Mar-01 02:00N 58°53' W 140°55'3 1.5 1026.0 7.4
2015-Mar-01 00:00N 58°51' W 140°50'1 0.4 1027.4 7.5
2015-Feb-28 21:00N 58°51' W 140°49'0 0.0 1028.0 7.2
2015-Feb-28 20:00N 58°51' W 140°49'0 0.3 1028.0 7.3
2015-Feb-28 19:00N 58°51' W 140°49'1 1.4 1028.0 7.1
2015-Feb-28 18:00N 58°50' W 140°51'0 0.0 1028.1 7.1
2015-Feb-28 17:00N 58°50' W 140°51'4 4.1 1028.0 7.2
2015-Feb-28 16:00N 58°47' W 140°56'0 0.0 1028.1 7.2
2015-Feb-28 15:00N 58°47' W 140°56'0 0.0 1028.6 7.3
2015-Feb-28 14:00N 58°47' W 140°56'2 1.7 1029.1 7.3
2015-Feb-28 13:00N 58°48' W 140°53'3 1.6 1029.4 7.3
2015-Feb-28 11:00N 58°46' W 140°58'0 0.0 1030.3 7.4
2015-Feb-28 08:00N 58°46' W 140°58'2 2.4 1030.3 7.4
2015-Feb-28 07:00N 58°45' W 141°02'0 0.0 1030.5 7.4
2015-Feb-28 06:00N 58°45' W 141°02'0 0.3 1030.8 7.4
2015-Feb-28 05:00N 58°45' W 141°02'1 1.0 1031.0 7.5
2015-Feb-28 04:00N 58°44' W 141°00'1 0.4 1031.1 7.5
2015-Feb-28 01:00N 58°43' W 141°01'2 1.1 1031.9 7.5
2015-Feb-27 23:00N 58°41' W 141°01'3 0.9 1032.2 7.6
2015-Feb-27 20:00N 58°38' W 141°01'1 0.4 1031.8 7.5
2015-Feb-27 18:00N 58°37' W 141°02'0 0.0 1031.3 7.4
2015-Feb-27 17:00N 58°37' W 141°02'1 1.1 1030.9 7.3
2015-Feb-27 16:00N 58°37' W 141°04'0 0.0 1030.7 7.3
2015-Feb-27 15:00N 58°37' W 141°04'1 1.4 1030.8 7.3
2015-Feb-27 14:00N 58°36' W 141°06'1 0.9 1031.0 7.3
2015-Feb-27 13:00N 58°36' W 141°07'0 0.0 1030.7 7.3
2015-Feb-27 12:00N 58°36' W 141°07'2 1.6 1030.7 7.3
2015-Feb-27 11:00N 58°35' W 141°10'0 0.0 1031.1 7.1
2015-Feb-27 10:00N 58°35' W 141°10'0 0.1 1031.2 7.0
2015-Feb-27 07:00N 58°34' W 141°10'0 0.2 1030.7 7.0
2015-Feb-27 06:00N 58°34' W 141°10'1 0.8 1030.4 7.0
2015-Feb-27 05:00N 58°34' W 141°11'1 0.8 1030.3 7.0
2015-Feb-27 04:00N 58°34' W 141°10'1 1.1 1030.2 7.0
2015-Feb-27 03:00N 58°34' W 141°12'0 0.3 1030.3 7.0
2015-Feb-27 02:00N 58°34' W 141°12'1 1.0 1030.4 7.1
2015-Feb-27 01:00N 58°35' W 141°14'0 0.0 1030.4 7.0
2015-Feb-27 00:00N 58°35' W 141°14'2 0.7 1030.6 7.0
2015-Feb-26 21:00N 58°34' W 141°17'1 1.1 1030.3 7.0
2015-Feb-26 20:00N 58°34' W 141°19'1 0.3 1030.3 7.0
2015-Feb-26 17:00N 58°33' W 141°18'0 0.4 1028.8 7.0
2015-Feb-26 16:00N 58°33' W 141°19'1 0.6 1028.2 7.0
2015-Feb-26 15:00N 58°33' W 141°18'1 0.3 1027.9 7.0
2015-Feb-26 12:00N 58°33' W 141°19'1 0.8 1027.1 7.0
2015-Feb-26 11:00N 58°34' W 141°19'0 0.0 1026.8 7.0
2015-Feb-26 10:00N 58°34' W 141°19'0 0.0 1026.5 7.0
2015-Feb-26 09:00N 58°34' W 141°19'2 2.4 1026.2 7.0
2015-Feb-26 08:00N 58°32' W 141°21'0 0.1 1025.7 7.0
2015-Feb-26 07:00N 58°31' W 141°21'1 1.1 1025.5 7.0
2015-Feb-26 06:00N 58°30' W 141°22'1 0.7 1025.0 7.0
2015-Feb-26 04:00N 58°29' W 141°21'0 0.0 1024.1 7.0
2015-Feb-26 03:00N 58°29' W 141°21'1 0.8 1023.6 7.1
2015-Feb-26 02:00N 58°29' W 141°19'1 0.5 1023.4 7.1
2015-Feb-26 01:00N 58°28' W 141°19'0 0.0 1023.4 7.1
2015-Feb-26 00:00N 58°28' W 141°19'0 0.4 1023.5 7.1
2015-Feb-25 23:00N 58°29' W 141°19'1 0.7 1023.7 7.1
2015-Feb-25 22:00N 58°28' W 141°18'0 0.0 1024.0 7.1
2015-Feb-25 21:00N 58°28' W 141°18'1 0.5 1024.2 7.1
2015-Feb-25 20:00N 58°28' W 141°19'1 0.9 1024.4 7.1
2015-Feb-25 19:00N 58°28' W 141°21'1 1.1 1024.4 7.1
2015-Feb-25 18:00N 58°27' W 141°20'1 1.4 1024.3 7.1
2015-Feb-25 17:00N 58°27' W 141°17'2 2.0 1023.9 7.0
2015-Feb-25 16:00N 58°25' W 141°20'0 0.0 1024.0 7.0
2015-Feb-25 15:00N 58°25' W 141°20'0 0.0 1024.0 7.1
2015-Feb-25 14:00N 58°25' W 141°20'0 0.2 1024.5 7.3
2015-Feb-25 13:00N 58°25' W 141°19'2 1.7 1024.8 7.4
2015-Feb-25 12:00N 58°24' W 141°17'0 0.0 1025.2 7.5
2015-Feb-25 11:00N 58°24' W 141°17'1 1.2 1025.8 7.5
2015-Feb-25 10:00N 58°23' W 141°17'0 0.1 1026.2 7.5
2015-Feb-25 06:00N 58°23' W 141°17'1 0.5 1027.1 7.5
2015-Feb-25 05:00N 58°22' W 141°18'0 0.0 1027.5 7.5
2015-Feb-25 04:00N 58°22' W 141°18'1 0.5 1027.6 7.5
2015-Feb-25 03:00N 58°22' W 141°18'0 0.0 1027.8 7.5
2015-Feb-25 02:00N 58°22' W 141°18'1 0.6 1028.5 7.6
2015-Feb-25 01:00N 58°21' W 141°19'1 0.8 1029.1 7.6
2015-Feb-25 00:00N 58°21' W 141°18'1 0.9 1029.4 7.6
2015-Feb-24 23:00N 58°20' W 141°18'0 0.3 1029.9 7.6
2015-Feb-24 22:00N 58°20' W 141°17'0 0.3 1030.5 7.5
2015-Feb-24 21:00N 58°20' W 141°17'0 0.0 1030.7 7.5
2015-Feb-24 20:00N 58°20' W 141°17'0 0.3 1030.5 7.5
2015-Feb-24 19:00N 58°20' W 141°16'0 0.0 1030.4 7.5
2015-Feb-24 18:00N 58°20' W 141°16'0 0.3 1030.4 7.5
2015-Feb-24 17:00N 58°20' W 141°17'0 0.4 1030.2 7.5
2015-Feb-24 16:00N 58°20' W 141°16'1 0.7 1030.0 7.5
2015-Feb-24 15:00N 58°20' W 141°18'1 0.7 1029.9 7.5
2015-Feb-24 14:00N 58°19' W 141°18'1 0.7 1029.6 7.5
2015-Feb-24 13:00N 58°19' W 141°18'1 1.3 1029.5 7.5
2015-Feb-24 12:00N 58°17' W 141°18'2 1.0 1028.8 7.5
2015-Feb-24 10:00N 58°15' W 141°17'2 2.0 1028.5 7.5
2015-Feb-24 09:00N 58°17' W 141°18'2 2.0 1028.2 7.5
2015-Feb-24 08:00N 58°15' W 141°17'1 0.6 1027.9 7.4
2015-Feb-24 07:00N 58°15' W 141°17'0 0.0 1027.9 7.4
2015-Feb-24 06:00N 58°15' W 141°17'1 0.5 1027.8 7.3
2015-Feb-24 05:00N 58°15' W 141°17'0 0.0 1027.1 7.1
2015-Feb-24 04:00N 58°15' W 141°17'1 0.8 1026.6 7.1
2015-Feb-24 03:00N 58°15' W 141°18'0 0.0 1026.0 7.1
2015-Feb-24 02:00N 58°15' W 141°18'0 0.2 1025.4 7.1
2015-Feb-24 01:00N 58°15' W 141°19'1 0.7 1025.1 7.1
2015-Feb-24 00:00N 58°14' W 141°20'0 0.0 1025.1 7.1
2015-Feb-23 23:00N 58°14' W 141°20'1 1.1 1025.3 7.1
2015-Feb-23 22:00N 58°13' W 141°20'0 0.2 1025.1 7.1
2015-Feb-23 21:00N 58°13' W 141°20'1 1.3 1024.9 7.1
2015-Feb-23 20:00N 58°12' W 141°22'0 0.2 1024.7 7.1
2015-Feb-23 18:00N 58°12' W 141°21'0 0.0 1023.9 7.1
2015-Feb-23 17:00N 58°12' W 141°21'0 0.0 1023.5 7.1
2015-Feb-23 16:00N 58°12' W 141°21'1 1.0 1022.7 7.0
2015-Feb-23 15:00N 58°11' W 141°20'1 1.5 1021.8 7.1
2015-Feb-23 14:00N 58°11' W 141°23'0 0.0 1021.1 7.1
2015-Feb-23 12:00N 58°11' W 141°23'2 0.8 1019.6 7.0
2015-Feb-23 10:00N 58°10' W 141°23'0 0.0 1017.6 7.1
2015-Feb-23 09:00N 58°10' W 141°23'0 0.0 1016.3 7.1
2015-Feb-23 08:00N 58°10' W 141°23'3 2.5 1016.2 7.1
2015-Feb-23 07:00N 58°07' W 141°23'0 0.0 1016.4 7.1
2015-Feb-23 06:00N 58°07' W 141°23'0 0.0 1016.9 7.1
2015-Feb-23 05:00N 58°07' W 141°23'1 1.1 1017.3 7.1
2015-Feb-23 04:00N 58°06' W 141°24'0 0.5 1017.3 7.1
2015-Feb-23 03:00N 58°06' W 141°24'1 1.2 1017.5 7.1
2015-Feb-23 02:00N 58°05' W 141°22'1 0.8 1017.7 7.1
2015-Feb-23 01:00N 58°04' W 141°21'1 1.1 1017.6 7.1
2015-Feb-23 00:00N 58°03' W 141°20'0 0.0 1018.0 7.1
2015-Feb-22 22:00N 58°03' W 141°20'1 0.4 1018.6 7.1
2015-Feb-22 20:00N 58°03' W 141°19'1 1.3 1019.8 7.1
2015-Feb-22 19:00N 58°02' W 141°20'1 0.5 1020.3 7.1
2015-Feb-22 17:00N 58°01' W 141°20'0 0.0 1021.0 7.1
2015-Feb-22 16:00N 58°01' W 141°20'1 0.8 1021.0 7.1
2015-Feb-22 15:00N 57°60' W 141°20'0 0.0 1021.1 7.1
2015-Feb-22 14:00N 57°60' W 141°20'3 2.7 1021.8 7.1
2015-Feb-22 13:00N 57°58' W 141°16'0 0.0 1021.9 7.1
2015-Feb-22 12:00N 57°58' W 141°16'4 1.0 1022.0 7.1
2015-Feb-22 08:00N 57°60' W 141°08'0 0.0 1021.5 7.1
2015-Feb-22 07:00N 57°60' W 141°08'6 5.8 1021.0 7.1
2015-Feb-22 06:00N 57°57' W 141°18'0 0.0 1020.4 7.1
2015-Feb-22 05:00N 57°57' W 141°18'3 3.2 1019.7 7.1
2015-Feb-22 04:00N 57°55' W 141°13'1 0.7 1018.9 7.1
2015-Feb-22 03:00N 57°55' W 141°14'0 0.0 1018.4 7.1
2015-Feb-22 02:00N 57°55' W 141°14'1 0.5 1018.2 7.1
2015-Feb-22 01:00N 57°55' W 141°15'2 1.7 1017.9 7.1
2015-Feb-22 00:00N 57°53' W 141°14'3 2.6 1018.3 7.0
2015-Feb-21 23:00N 57°52' W 141°09'2 1.0 1018.6 7.0
2015-Feb-21 21:00N 57°50' W 141°08'   1019.9 6.9

Dump ship's entire track history